Time;durP1;ratioP1;P1;durP2;ratioP2;P2;SDS_P1;SDS_P2;PMS_P1;PMS_P2;Temp;Humidity;BMP_temperature;BMP_pressure;BME280_temperature;BME280_humidity;BME280_pressure;Samples;Min_cycle;Max_cycle;Signal;HPM_P1;HPM_P2
2023/12/20 00:00:54;;;;;;;;;;;;;;;12.23;63.83;100512.69;4989419;28;6967;-75
2023/12/20 00:03:19;;;;;;;;;;;;;;;12.23;63.09;100525.53;4981007;28;6957;-74
2023/12/20 00:05:45;;;;;;;;;;;;;;;12.24;63.61;100539.28;4983986;28;6788;-73
2023/12/20 00:08:10;;;;;;;;;;;;;;;12.24;63.25;100534.16;4972683;28;7208;-73
2023/12/20 00:10:36;;;;;;;;;;;;;;;12.23;63.82;100538.38;4977394;28;6996;-74
2023/12/20 00:13:01;;;;;;;;;;;;;;;12.21;63.37;100534.88;4992174;28;7005;-73
2023/12/20 00:15:27;;;;;;;;;;;;;;;12.19;63.21;100545.09;4995984;28;7273;-74
2023/12/20 00:17:52;;;;;;;;;;;;;;;12.16;63.04;100542.38;4956989;28;6966;-75
2023/12/20 00:20:18;;;;;;;;;;;;;;;12.14;63.17;100541.44;4978998;28;6868;-74
2023/12/20 00:22:43;;;;;;;;;;;;;;;12.11;62.89;100548.13;4970204;28;6780;-72
2023/12/20 00:25:09;;;;;;;;;;;;;;;12.08;63.82;100552.34;4970199;28;7282;-74
2023/12/20 00:27:34;;;;;;;;;;;;;;;12.06;63.04;100561.63;4975882;28;6843;-73
2023/12/20 00:30:00;;;;;;;;;;;;;;;12.06;63.78;100564.22;4980449;28;6779;-74
2023/12/20 00:32:25;;;;;;;;;;;;;;;12.03;63.52;100561.50;4972397;28;6946;-75
2023/12/20 00:34:51;;;;;;;;;;;;;;;11.98;62.92;100562.97;4994673;28;6876;-74
2023/12/20 00:37:16;;;;;;;;;;;;;;;11.96;63.42;100559.44;4967731;28;7187;-72
2023/12/20 00:39:42;;;;;;;;;;;;;;;11.92;63.08;100549.84;4961881;28;7253;-75
2023/12/20 00:42:07;;;;;;;;;;;;;;;11.85;62.92;100564.13;4998806;28;7050;-77
2023/12/20 00:44:33;;;;;;;;;;;;;;;11.78;62.91;100575.81;4971715;28;6957;-76
2023/12/20 00:46:58;;;;;;;;;;;;;;;11.69;63.11;100571.91;4955967;28;7050;-77
2023/12/20 00:49:24;;;;;;;;;;;;;;;11.59;62.59;100573.16;4983877;28;6948;-78
2023/12/20 00:51:50;;;;;;;;;;;;;;;11.51;62.55;100573.72;4967269;28;7074;-77
2023/12/20 00:54:16;;;;;;;;;;;;;;;11.46;63.00;100579.44;4976229;28;6982;-76
2023/12/20 00:56:41;;;;;;;;;;;;;;;11.40;63.20;100580.03;4976379;28;6851;-76
2023/12/20 00:59:07;;;;;;;;;;;;;;;11.37;63.28;100582.44;4996714;28;6948;-77
2023/12/20 01:01:33;;;;;;;;;;;;;;;11.35;63.48;100595.22;4976332;28;7003;-78
2023/12/20 01:03:58;;;;;;;;;;;;;;;11.34;63.37;100592.56;4980913;28;7340;-77
2023/12/20 01:06:24;;;;;;;;;;;;;;;11.32;62.54;100609.56;4977773;28;7238;-75
2023/12/20 01:08:49;;;;;;;;;;;;;;;11.25;62.33;100600.66;4964594;28;7251;-75
2023/12/20 01:11:15;;;;;;;;;;;;;;;11.12;62.20;100601.78;4971959;28;6969;-78
2023/12/20 01:13:40;;;;;;;;;;;;;;;10.98;61.84;100586.59;4965314;28;6796;-77
2023/12/20 01:16:06;;;;;;;;;;;;;;;10.84;62.08;100601.28;4969621;28;6783;-77
2023/12/20 01:18:31;;;;;;;;;;;;;;;10.74;61.92;100605.88;4965227;28;7213;-75
2023/12/20 01:21:02;;;;;;;;;;;;;;;10.64;61.88;100604.53;4967742;28;6852;-78
2023/12/20 01:23:28;;;;;;;;;;;;;;;10.55;62.43;100602.38;4955445;28;6983;-77
2023/12/20 01:25:53;;;;;;;;;;;;;;;10.46;61.82;100599.34;4963682;28;7230;-77
2023/12/20 01:28:19;;;;;;;;;;;;;;;10.34;62.21;100608.13;4966099;28;7143;-77
2023/12/20 01:30:45;;;;;;;;;;;;;;;10.26;61.80;100605.16;4966989;28;7225;-77
2023/12/20 01:33:10;;;;;;;;;;;;;;;10.18;61.74;100591.06;4971691;28;8500;-77
2023/12/20 01:35:36;;;;;;;;;;;;;;;10.12;62.01;100589.06;4961268;28;6776;-77
2023/12/20 01:38:01;;;;;;;;;;;;;;;10.08;61.95;100596.50;4963736;28;6967;-75
2023/12/20 01:40:27;;;;;;;;;;;;;;;10.04;62.66;100608.25;4962893;28;6987;-77
2023/12/20 01:43:08;;;;;;;;;;;;;;;10.05;62.50;100621.94;4966267;28;6784;-77
2023/12/20 01:45:33;;;;;;;;;;;;;;;10.05;62.72;100615.16;4962981;28;6984;-78
2023/12/20 01:48:00;;;;;;;;;;;;;;;10.09;63.08;100606.81;4964091;28;8419;-77
2023/12/20 01:50:25;;;;;;;;;;;;;;;10.14;62.86;100610.53;4965341;28;7042;-78
2023/12/20 01:52:52;;;;;;;;;;;;;;;10.17;63.46;100609.78;4975840;28;6784;-74
2023/12/20 01:55:19;;;;;;;;;;;;;;;10.21;62.82;100605.72;4996143;28;7284;-74
2023/12/20 01:57:47;;;;;;;;;;;;;;;10.24;63.13;100613.56;4983832;28;6840;-74
2023/12/20 02:00:14;;;;;;;;;;;;;;;10.27;63.20;100617.16;4974101;28;6968;-74
2023/12/20 02:02:40;;;;;;;;;;;;;;;10.31;63.28;100614.78;4988871;28;11817;-74
2023/12/20 02:05:09;;;;;;;;;;;;;;;10.33;63.08;100620.84;5005770;28;6950;-75
2023/12/20 02:07:35;;;;;;;;;;;;;;;10.34;63.50;100631.19;4984729;28;6792;-75
2023/12/20 02:10:04;;;;;;;;;;;;;;;10.34;63.50;100623.50;4971448;28;6938;-74
2023/12/20 02:12:30;;;;;;;;;;;;;;;10.35;62.81;100627.81;4994815;28;6811;-74
2023/12/20 02:14:55;;;;;;;;;;;;;;;10.34;63.22;100623.50;4990069;28;6978;-74
2023/12/20 02:17:22;;;;;;;;;;;;;;;10.35;62.99;100619.25;4991363;28;7103;-74
2023/12/20 02:19:47;;;;;;;;;;;;;;;10.31;62.36;100620.75;4988584;28;7570;-75
2023/12/20 02:22:13;;;;;;;;;;;;;;;10.30;62.82;100620.69;4987268;28;7547;-74
2023/12/20 02:24:39;;;;;;;;;;;;;;;10.28;62.93;100620.59;4985548;28;6780;-75
2023/12/20 02:27:08;;;;;;;;;;;;;;;10.25;62.71;100620.47;4985288;28;6930;-75
2023/12/20 02:29:36;;;;;;;;;;;;;;;10.19;62.50;100635.50;4989709;28;7114;-74
2023/12/20 02:32:02;;;;;;;;;;;;;;;10.12;62.22;100635.16;4976723;28;7043;-75
2023/12/20 02:34:28;;;;;;;;;;;;;;;10.11;63.03;100635.97;4986161;28;7065;-74
2023/12/20 02:36:54;;;;;;;;;;;;;;;10.14;63.14;100627.56;4979548;28;7227;-75
2023/12/20 02:39:20;;;;;;;;;;;;;;;10.19;63.48;100627.81;4968348;28;6936;-75
2023/12/20 02:41:46;;;;;;;;;;;;;;;10.25;63.21;100628.16;4992260;28;6868;-76
2023/12/20 02:44:11;;;;;;;;;;;;;;;10.26;62.99;100624.78;4992324;28;6888;-76
2023/12/20 02:46:36;;;;;;;;;;;;;;;10.30;63.22;100631.81;4989095;28;6816;-76
2023/12/20 02:49:02;;;;;;;;;;;;;;;10.33;63.37;100631.09;4988923;28;6949;-75
2023/12/20 02:51:27;;;;;;;;;;;;;;;10.35;62.81;100640.63;4989712;28;7106;-75
2023/12/20 02:53:53;;;;;;;;;;;;;;;10.35;62.95;100624.38;4990017;28;7092;-75
2023/12/20 02:56:19;;;;;;;;;;;;;;;10.33;62.89;100631.97;4997470;28;6969;-76
2023/12/20 02:58:44;;;;;;;;;;;;;;;10.32;62.97;100625.09;4992655;28;6956;-75
2023/12/20 03:01:10;;;;;;;;;;;;;;;10.30;62.69;100626.69;4991945;28;7373;-75
2023/12/20 03:03:35;;;;;;;;;;;;;;;10.28;63.02;100625.72;4957052;28;6954;-75
2023/12/20 03:06:00;;;;;;;;;;;;;;;10.28;62.01;100630.84;4967156;28;6787;-75
2023/12/20 03:08:26;;;;;;;;;;;;;;;10.26;62.90;100628.19;4970183;28;7670;-75
2023/12/20 03:10:53;;;;;;;;;;;;;;;10.25;63.20;100630.72;4972273;28;6799;-75
2023/12/20 03:13:18;;;;;;;;;;;;;;;10.24;62.49;100626.38;4968933;28;7005;-75
2023/12/20 03:15:44;;;;;;;;;;;;;;;10.26;62.85;100635.03;4968064;28;6799;-75
2023/12/20 03:18:09;;;;;;;;;;;;;;;10.24;63.25;100632.38;4968628;28;6783;-75
2023/12/20 03:20:35;;;;;;;;;;;;;;;10.23;62.35;100630.63;4966822;28;6795;-75
2023/12/20 03:23:01;;;;;;;;;;;;;;;10.24;62.50;100631.50;4965696;28;6856;-75
2023/12/20 03:25:26;;;;;;;;;;;;;;;10.23;62.66;100629.72;4965624;28;7163;-76
2023/12/20 03:27:53;;;;;;;;;;;;;;;10.22;62.86;100620.28;4971843;28;7007;-75
2023/12/20 03:30:18;;;;;;;;;;;;;;;10.21;62.27;100615.94;4968299;28;7280;-75
2023/12/20 03:32:44;;;;;;;;;;;;;;;10.14;62.26;100613.09;4986739;28;8092;-75
2023/12/20 03:35:10;;;;;;;;;;;;;;;10.07;62.22;100608.44;4967612;28;6784;-75
2023/12/20 03:37:36;;;;;;;;;;;;;;;10.01;62.02;100613.22;4967590;28;6854;-75
2023/12/20 03:40:02;;;;;;;;;;;;;;;9.94;62.02;100613.69;4977403;28;7097;-75
2023/12/20 03:42:27;;;;;;;;;;;;;;;9.91;62.42;100621.19;4967073;28;6859;-75
2023/12/20 03:44:53;;;;;;;;;;;;;;;9.88;62.10;100605.69;4963898;28;6788;-75
2023/12/20 03:47:18;;;;;;;;;;;;;;;9.88;62.73;100616.78;4963201;28;8511;-76
2023/12/20 03:49:44;;;;;;;;;;;;;;;9.90;63.18;100612.66;4970924;28;6799;-75
2023/12/20 03:52:09;;;;;;;;;;;;;;;9.94;63.09;100624.81;4967565;28;6855;-75
2023/12/20 03:54:35;;;;;;;;;;;;;;;9.98;63.45;100629.28;4971407;28;6784;-75
2023/12/20 03:57:01;;;;;;;;;;;;;;;10.02;63.17;100614.13;4959056;28;7424;-75
2023/12/20 03:59:26;;;;;;;;;;;;;;;10.02;63.28;100627.78;4969025;28;6799;-76
2023/12/20 04:01:52;;;;;;;;;;;;;;;10.04;63.05;100626.19;4965911;28;7258;-75
2023/12/20 04:04:17;;;;;;;;;;;;;;;10.06;62.82;100619.47;4966119;28;6791;-75
2023/12/20 04:06:43;;;;;;;;;;;;;;;10.07;62.94;100604.97;4965976;28;6851;-75
2023/12/20 04:09:12;;;;;;;;;;;;;;;10.06;62.99;100603.22;4965716;28;7858;-75
2023/12/20 04:11:38;;;;;;;;;;;;;;;10.04;62.82;100603.13;4966183;28;6882;-75
2023/12/20 04:14:04;;;;;;;;;;;;;;;10.03;63.04;100605.63;4987975;28;6780;-75
2023/12/20 04:16:30;;;;;;;;;;;;;;;10.01;62.58;100602.97;4972977;28;7419;-75
2023/12/20 04:18:55;;;;;;;;;;;;;;;9.96;62.00;100600.16;4991411;28;6925;-75
2023/12/20 04:21:21;;;;;;;;;;;;;;;9.90;62.22;100604.97;4991383;28;6818;-75
2023/12/20 04:23:46;;;;;;;;;;;;;;;9.82;62.60;100611.34;4987831;28;6771;-75
2023/12/20 04:26:12;;;;;;;;;;;;;;;9.75;61.92;100605.00;4989775;28;6771;-75
2023/12/20 04:28:37;;;;;;;;;;;;;;;9.68;62.20;100614.03;4986450;28;6784;-75
2023/12/20 04:31:03;;;;;;;;;;;;;;;9.60;62.27;100620.38;4990703;28;6979;-75
2023/12/20 04:33:28;;;;;;;;;;;;;;;9.54;61.91;100618.38;4988517;28;7178;-75
2023/12/20 04:35:54;;;;;;;;;;;;;;;9.50;62.29;100619.00;4984148;28;7042;-75
2023/12/20 04:38:19;;;;;;;;;;;;;;;9.51;62.10;100620.78;4973014;28;7931;-76
2023/12/20 04:40:45;;;;;;;;;;;;;;;9.53;62.68;100619.19;4991358;28;7027;-75
2023/12/20 04:43:10;;;;;;;;;;;;;;;9.53;62.87;100611.50;4987891;28;6788;-75
2023/12/20 04:45:36;;;;;;;;;;;;;;;9.54;62.69;100623.50;5008587;28;6780;-75
2023/12/20 04:48:02;;;;;;;;;;;;;;;9.55;62.98;100615.03;4992861;28;7007;-75
2023/12/20 04:50:27;;;;;;;;;;;;;;;9.57;62.89;100616.00;4990982;28;7192;-75
2023/12/20 04:52:53;;;;;;;;;;;;;;;9.59;63.41;100616.97;4994596;28;6983;-76
2023/12/20 04:55:18;;;;;;;;;;;;;;;9.63;63.25;100612.00;4994119;28;7048;-75
2023/12/20 04:57:44;;;;;;;;;;;;;;;9.67;63.07;100621.63;4972042;28;6941;-75
2023/12/20 05:00:10;;;;;;;;;;;;;;;9.69;62.80;100628.56;4989480;28;7365;-75
2023/12/20 05:02:36;;;;;;;;;;;;;;;9.73;62.95;100621.94;4986266;28;7109;-75
2023/12/20 05:05:02;;;;;;;;;;;;;;;9.76;62.92;100618.69;4990224;28;6924;-75
2023/12/20 05:07:27;;;;;;;;;;;;;;;9.78;62.86;100629.88;4992223;28;6917;-76
2023/12/20 05:09:53;;;;;;;;;;;;;;;9.78;62.94;100630.78;4979365;28;6955;-75
2023/12/20 05:12:18;;;;;;;;;;;;;;;9.80;63.23;100621.50;4987727;28;6780;-75
2023/12/20 05:14:44;;;;;;;;;;;;;;;9.84;62.55;100623.41;4972801;28;6810;-75
2023/12/20 05:17:09;;;;;;;;;;;;;;;9.86;63.30;100629.53;4989455;28;6828;-75
2023/12/20 05:19:35;;;;;;;;;;;;;;;9.91;62.72;100632.34;4973687;28;8395;-76
2023/12/20 05:22:02;;;;;;;;;;;;;;;9.94;62.96;100623.91;4973716;28;6919;-74
2023/12/20 05:24:28;;;;;;;;;;;;;;;9.95;62.94;100620.59;4946116;28;7263;-75
2023/12/20 05:26:53;;;;;;;;;;;;;;;9.97;63.10;100624.09;4942701;28;7162;-74
2023/12/20 05:29:18;;;;;;;;;;;;;;;9.98;62.61;100613.91;4964591;28;8095;-75
2023/12/20 05:31:44;;;;;;;;;;;;;;;10.02;62.83;100614.13;4963896;28;8016;-73
2023/12/20 05:34:10;;;;;;;;;;;;;;;10.04;62.96;100615.94;4950869;28;8085;-74
2023/12/20 05:36:36;;;;;;;;;;;;;;;10.06;62.97;100616.03;4968846;28;6978;-74
2023/12/20 05:39:03;;;;;;;;;;;;;;;10.07;63.03;100599.84;4968215;28;8649;-76
2023/12/20 05:41:29;;;;;;;;;;;;;;;10.10;62.41;100615.41;4969649;28;6807;-73
2023/12/20 05:43:54;;;;;;;;;;;;;;;10.11;62.39;100623.16;4958263;28;8529;-74
2023/12/20 05:46:21;;;;;;;;;;;;;;;10.13;62.43;100626.66;4965115;28;6776;-73
2023/12/20 05:48:46;;;;;;;;;;;;;;;10.15;62.87;100621.63;4982425;28;7223;-74
2023/12/20 05:51:12;;;;;;;;;;;;;;;10.17;62.72;100620.03;4966977;28;6840;-75
2023/12/20 05:53:38;;;;;;;;;;;;;;;10.18;62.64;100619.22;4971878;28;7032;-73
2023/12/20 05:56:04;;;;;;;;;;;;;;;10.19;62.41;100622.69;4951371;28;7219;-74
2023/12/20 05:58:29;;;;;;;;;;;;;;;10.18;62.31;100616.66;4968089;28;6800;-74
2023/12/20 06:00:55;;;;;;;;;;;;;;;10.19;62.83;100602.19;4965591;28;6783;-75
2023/12/20 06:03:20;;;;;;;;;;;;;;;10.16;62.49;100608.03;4968640;28;6980;-74
2023/12/20 06:05:46;;;;;;;;;;;;;;;10.16;62.04;100619.97;4968696;28;7915;-75
2023/12/20 06:08:11;;;;;;;;;;;;;;;10.10;62.20;100607.72;4951264;28;7242;-74
2023/12/20 06:10:37;;;;;;;;;;;;;;;10.05;61.91;100627.06;4966090;28;6795;-75
2023/12/20 06:13:04;;;;;;;;;;;;;;;9.97;62.36;100621.53;4968980;28;6970;-75
2023/12/20 06:15:29;;;;;;;;;;;;;;;9.95;62.04;100628.28;4967714;28;6816;-73
2023/12/20 06:17:55;;;;;;;;;;;;;;;9.94;62.50;100629.94;4967126;28;6932;-73
2023/12/20 06:20:20;;;;;;;;;;;;;;;9.96;62.75;100630.03;4969276;28;6784;-75
2023/12/20 06:22:46;;;;;;;;;;;;;;;10.00;62.22;100640.53;4946983;28;7811;-76
2023/12/20 06:25:11;;;;;;;;;;;;;;;10.03;62.79;100641.47;4967204;28;7174;-74
2023/12/20 06:27:37;;;;;;;;;;;;;;;10.03;62.48;100634.66;4967914;28;7006;-75
2023/12/20 06:30:03;;;;;;;;;;;;;;;10.04;62.19;100644.09;4965030;28;6784;-76
2023/12/20 06:32:29;;;;;;;;;;;;;;;10.03;62.15;100644.03;4949051;28;6959;-73
2023/12/20 06:34:54;;;;;;;;;;;;;;;10.01;62.16;100643.94;4967404;28;7365;-74
2023/12/20 06:37:20;;;;;;;;;;;;;;;10.00;62.63;100645.66;4981088;28;7440;-73
2023/12/20 06:39:46;;;;;;;;;;;;;;;9.98;62.33;100639.53;4962699;28;6799;-74
2023/12/20 06:42:12;;;;;;;;;;;;;;;9.96;61.82;100640.28;4964833;28;7012;-74
2023/12/20 06:44:38;;;;;;;;;;;;;;;9.92;62.13;100638.31;4950571;28;6990;-74
2023/12/20 06:47:04;;;;;;;;;;;;;;;9.91;62.32;100647.69;4965310;28;7062;-74
2023/12/20 06:49:29;;;;;;;;;;;;;;;9.92;62.36;100644.34;4966140;28;6969;-75
2023/12/20 06:51:55;;;;;;;;;;;;;;;9.95;62.18;100638.50;4967615;28;6978;-75
2023/12/20 06:54:20;;;;;;;;;;;;;;;9.95;62.42;100635.94;4951467;28;7427;-73
2023/12/20 06:56:46;;;;;;;;;;;;;;;9.96;62.01;100637.72;4959064;28;7228;-75
2023/12/20 06:59:11;;;;;;;;;;;;;;;9.94;62.09;100640.19;4984547;28;6960;-76
2023/12/20 07:01:37;;;;;;;;;;;;;;;9.97;62.18;100636.91;4960765;28;6783;-74
2023/12/20 07:04:03;;;;;;;;;;;;;;;10.00;61.90;100637.97;4953097;28;7280;-74
2023/12/20 07:06:29;;;;;;;;;;;;;;;10.03;62.31;100641.47;4964765;28;8169;-73
2023/12/20 07:08:54;;;;;;;;;;;;;;;10.04;62.26;100626.19;4971657;28;7495;-75
2023/12/20 07:11:20;;;;;;;;;;;;;;;10.04;62.44;100638.97;4956904;28;7363;-74
2023/12/20 07:13:45;;;;;;;;;;;;;;;10.06;62.09;100649.31;4969466;28;7695;-74
2023/12/20 07:16:11;;;;;;;;;;;;;;;10.07;62.05;100648.50;4965140;28;6840;-74
2023/12/20 07:18:36;;;;;;;;;;;;;;;10.09;61.58;100646.91;4965593;28;6792;-73
2023/12/20 07:21:02;;;;;;;;;;;;;;;10.07;61.72;100634.03;4965812;28;6847;-75
2023/12/20 07:23:27;;;;;;;;;;;;;;;10.08;61.93;100623.00;4965352;28;7086;-74
2023/12/20 07:25:53;;;;;;;;;;;;;;;10.07;61.97;100628.91;4966596;28;6987;-75
2023/12/20 07:28:18;;;;;;;;;;;;;;;10.06;61.60;100632.28;4947556;28;6987;-74
2023/12/20 07:30:43;;;;;;;;;;;;;;;10.05;61.60;100634.75;4944603;28;7148;-74
2023/12/20 07:33:09;;;;;;;;;;;;;;;10.00;61.07;100626.81;4964855;28;6955;-74
2023/12/20 07:35:35;;;;;;;;;;;;;;;9.91;61.58;100626.31;4965026;28;6780;-75
2023/12/20 07:38:00;;;;;;;;;;;;;;;9.81;61.18;100625.81;4969468;28;6804;-75
2023/12/20 07:40:25;;;;;;;;;;;;;;;9.74;61.04;100623.72;4970648;28;7022;-75
2023/12/20 07:42:51;;;;;;;;;;;;;;;9.67;61.63;100619.06;4962519;28;6800;-80
2023/12/20 07:45:16;;;;;;;;;;;;;;;9.62;61.30;100620.47;4956928;28;7161;-80
2023/12/20 07:47:42;;;;;;;;;;;;;;;9.59;61.66;100623.75;4963660;28;6856;-79
2023/12/20 07:50:07;;;;;;;;;;;;;;;9.53;61.16;100634.53;4966978;28;6949;-80
2023/12/20 07:52:33;;;;;;;;;;;;;;;9.49;61.67;100626.59;4946352;28;7996;-77
2023/12/20 07:54:58;;;;;;;;;;;;;;;9.44;61.52;100634.00;4967185;28;6848;-79
2023/12/20 07:57:24;;;;;;;;;;;;;;;9.40;61.40;100634.66;4969307;28;6787;-78
2023/12/20 07:59:49;;;;;;;;;;;;;;;9.37;61.32;100630.22;4956765;28;7335;-80
2023/12/20 08:02:15;;;;;;;;;;;;;;;9.38;61.66;100631.13;4969771;28;6997;-79
2023/12/20 08:04:40;;;;;;;;;;;;;;;9.35;61.31;100626.72;4958282;28;7048;-80
2023/12/20 08:07:06;;;;;;;;;;;;;;;9.37;61.90;100629.38;4961222;28;7047;-81
2023/12/20 08:09:33;;;;;;;;;;;;;;;9.37;62.42;100630.22;4952349;28;7039;-78
2023/12/20 08:11:59;;;;;;;;;;;;;;;9.42;61.66;100631.38;4969488;28;7467;-79
2023/12/20 08:14:25;;;;;;;;;;;;;;;9.43;61.97;100632.25;4946012;28;6969;-81
2023/12/20 08:16:51;;;;;;;;;;;;;;;9.46;61.98;100622.19;4965230;28;7130;-82
2023/12/20 08:19:16;;;;;;;;;;;;;;;9.50;62.07;100603.66;4968996;28;6893;-81
2023/12/20 08:21:42;;;;;;;;;;;;;;;9.56;62.00;100609.13;4963473;28;7190;-82
2023/12/20 08:24:08;;;;;;;;;;;;;;;9.64;62.37;100612.09;4963004;28;6795;-79
2023/12/20 08:26:33;;;;;;;;;;;;;;;9.75;62.16;100617.78;4980263;28;6967;-81
2023/12/20 08:28:59;;;;;;;;;;;;;;;9.81;62.58;100625.81;4962968;28;6804;-80
2023/12/20 08:31:24;;;;;;;;;;;;;;;9.87;62.32;100625.28;4966506;28;6779;-82
2023/12/20 08:33:50;;;;;;;;;;;;;;;9.90;61.34;100629.69;4970769;28;6942;-81
2023/12/20 08:36:17;;;;;;;;;;;;;;;9.88;61.41;100637.28;4970500;28;6932;-81
2023/12/20 08:38:43;;;;;;;;;;;;;;;9.86;61.57;100638.88;4967426;28;7177;-78
2023/12/20 08:41:08;;;;;;;;;;;;;;;9.84;61.54;100643.91;4963503;28;6799;-80
2023/12/20 08:43:35;;;;;;;;;;;;;;;9.89;61.74;100659.50;4965322;28;6957;-77
2023/12/20 08:46:01;;;;;;;;;;;;;;;9.91;61.58;100644.25;4947769;28;7086;-79
2023/12/20 08:48:28;;;;;;;;;;;;;;;9.90;61.40;100653.63;4952889;28;7174;-80
2023/12/20 08:50:53;;;;;;;;;;;;;;;9.93;61.64;100655.44;4964636;28;8017;-81
2023/12/20 08:53:19;;;;;;;;;;;;;;;9.96;61.66;100658.19;4970453;28;6965;-78
2023/12/20 08:55:45;;;;;;;;;;;;;;;10.03;61.29;100667.94;4974372;28;6871;-79
2023/12/20 08:58:10;;;;;;;;;;;;;;;10.13;62.26;100666.78;4949366;28;7024;-79
2023/12/20 09:00:36;;;;;;;;;;;;;;;10.20;61.85;100663.75;4945455;28;7318;-77
2023/12/20 09:03:02;;;;;;;;;;;;;;;10.23;61.63;100650.22;4968053;28;6955;-79
2023/12/20 09:05:28;;;;;;;;;;;;;;;10.24;60.98;100641.75;4970380;28;6939;-81
2023/12/20 09:07:53;;;;;;;;;;;;;;;10.23;61.32;100645.97;4968163;28;7169;-79
2023/12/20 09:10:22;;;;;;;;;;;;;;;10.26;60.85;100642.72;4953627;28;6963;-80
2023/12/20 09:12:56;;;;;;;;;;;;;;;10.28;60.82;100643.66;4956312;28;8012;-79
2023/12/20 09:15:22;;;;;;;;;;;;;;;10.28;60.64;100651.34;4960848;28;6812;-80
2023/12/20 09:17:48;;;;;;;;;;;;;;;10.36;61.02;100641.50;4950364;28;7347;-79
2023/12/20 09:20:13;;;;;;;;;;;;;;;10.39;60.87;100641.69;4955409;28;7960;-79
2023/12/20 09:22:39;;;;;;;;;;;;;;;10.40;60.62;100631.50;4966719;28;7077;-79
2023/12/20 09:25:05;;;;;;;;;;;;;;;10.41;60.52;100638.41;4985831;28;7115;-79
2023/12/20 09:27:31;;;;;;;;;;;;;;;10.36;60.27;100621.00;4982563;28;6776;-79
2023/12/20 09:29:56;;;;;;;;;;;;;;;10.31;60.62;100610.50;4965178;28;6861;-77
2023/12/20 09:32:22;;;;;;;;;;;;;;;10.31;60.46;100610.50;4980573;28;6788;-78
2023/12/20 09:34:47;;;;;;;;;;;;;;;10.30;60.33;100601.06;4962073;28;8372;-77
2023/12/20 09:37:13;;;;;;;;;;;;;;;10.31;60.29;100601.97;4965743;28;6951;-77
2023/12/20 09:39:39;;;;;;;;;;;;;;;10.34;60.45;100614.94;4950866;28;7136;-79
2023/12/20 09:42:05;;;;;;;;;;;;;;;10.37;60.64;100621.09;4966092;28;6805;-79
2023/12/20 09:44:36;;;;;;;;;;;;;;;10.46;60.83;100607.91;4958714;28;6795;-79
2023/12/20 09:47:05;;;;;;;;;;;;;;;10.55;60.32;100623.75;4967146;28;6892;-79
2023/12/20 09:49:30;;;;;;;;;;;;;;;10.61;60.00;100630.88;4965196;28;6800;-79
2023/12/20 09:51:56;;;;;;;;;;;;;;;10.65;60.53;100630.25;4963331;28;7039;-81
2023/12/20 09:54:22;;;;;;;;;;;;;;;10.70;60.33;100636.47;4977751;28;7002;-81
2023/12/20 09:56:48;;;;;;;;;;;;;;;10.76;60.21;100643.59;4964243;28;6876;-80
2023/12/20 09:59:14;;;;;;;;;;;;;;;10.82;60.32;100637.94;4956193;28;7828;-81
2023/12/20 10:01:41;;;;;;;;;;;;;;;10.89;59.86;100637.41;4963976;28;7056;-75
2023/12/20 10:04:10;;;;;;;;;;;;;;;10.92;59.91;100639.25;4963096;28;7727;-75
2023/12/20 10:06:36;;;;;;;;;;;;;;;10.92;59.75;100645.28;4965299;28;7004;-75
2023/12/20 10:09:04;;;;;;;;;;;;;;;10.94;59.70;100635.97;4971434;28;7157;-75
2023/12/20 10:11:29;;;;;;;;;;;;;;;10.97;59.53;100628.44;4943256;28;8292;-74
2023/12/20 10:14:01;;;;;;;;;;;;;;;11.04;59.54;100629.59;4971245;28;9394;-75
2023/12/20 10:16:27;;;;;;;;;;;;;;;11.10;59.53;100622.22;4959859;28;8077;-74
2023/12/20 10:18:53;;;;;;;;;;;;;;;11.17;59.17;100613.13;4965870;28;6784;-74
2023/12/20 10:21:19;;;;;;;;;;;;;;;11.23;59.59;100621.16;4960874;28;6796;-74
2023/12/20 10:23:45;;;;;;;;;;;;;;;11.32;59.39;100615.56;4962713;28;6783;-74
2023/12/20 10:26:22;;;;;;;;;;;;;;;11.37;58.93;100602.97;4967424;28;7201;-75
2023/12/20 10:28:53;;;;;;;;;;;;;;;11.38;59.26;100614.97;4967720;28;6820;-75
2023/12/20 10:31:31;;;;;;;;;;;;;;;11.40;59.04;100605.69;4959832;28;6820;-75
2023/12/20 10:33:58;;;;;;;;;;;;;;;11.39;58.42;100607.38;4960458;28;7116;-74
2023/12/20 10:36:29;;;;;;;;;;;;;;;11.37;58.91;100598.72;4962144;28;7168;-75
2023/12/20 10:38:57;;;;;;;;;;;;;;;11.36;58.13;100599.53;4946409;28;7179;-75
2023/12/20 10:41:27;;;;;;;;;;;;;;;11.34;58.41;100597.69;4951151;28;8408;-75
2023/12/20 10:44:02;;;;;;;;;;;;;;;11.32;58.30;100589.91;4960483;28;7308;-73
2023/12/20 10:46:29;;;;;;;;;;;;;;;11.32;58.71;100600.16;4958827;28;7776;-75
2023/12/20 10:48:56;;;;;;;;;;;;;;;11.31;58.17;100597.56;4953616;28;8879;-74
2023/12/20 10:51:24;;;;;;;;;;;;;;;11.32;58.38;100599.31;4952402;28;8865;-74
2023/12/20 10:53:50;;;;;;;;;;;;;;;11.33;58.66;100593.38;4944585;28;7168;-74
2023/12/20 10:56:18;;;;;;;;;;;;;;;11.33;58.31;100583.97;4962178;28;7849;-75
2023/12/20 10:58:44;;;;;;;;;;;;;;;11.35;58.75;100590.06;4957112;28;8189;-74
2023/12/20 11:01:13;;;;;;;;;;;;;;;11.36;58.46;100594.41;4959806;28;7228;-74
2023/12/20 11:03:45;;;;;;;;;;;;;;;11.39;58.74;100586.84;4955817;28;7027;-75
2023/12/20 11:06:26;;;;;;;;;;;;;;;11.40;58.53;100587.72;4959265;28;8875;-73
2023/12/20 11:09:09;;;;;;;;;;;;;;;11.38;58.28;100587.66;4963797;28;7228;-74
2023/12/20 11:11:38;;;;;;;;;;;;;;;11.39;58.64;100596.19;4962107;28;6899;-74
2023/12/20 11:14:34;;;;;;;;;;;;;;;11.41;58.25;100581.78;4967225;28;6983;-72
2023/12/20 11:17:08;;;;;;;;;;;;;;;11.43;58.38;100580.16;4962603;28;7279;-73
2023/12/20 11:19:36;;;;;;;;;;;;;;;11.47;58.65;100578.63;4977348;28;7210;-73
2023/12/20 11:22:04;;;;;;;;;;;;;;;11.52;58.26;100583.16;4962784;28;6964;-74
2023/12/20 11:24:32;;;;;;;;;;;;;;;11.53;57.91;100574.66;4940893;28;8306;-72
2023/12/20 11:26:59;;;;;;;;;;;;;;;11.56;57.62;100576.50;4951385;28;7010;-74
2023/12/20 11:29:34;;;;;;;;;;;;;;;11.56;57.56;100573.94;4971092;28;7098;-75
2023/12/20 11:32:01;;;;;;;;;;;;;;;11.57;57.62;100564.53;4966710;28;6804;-75
2023/12/20 11:34:29;;;;;;;;;;;;;;;11.58;57.84;100571.41;4970914;28;6823;-72
2023/12/20 11:37:02;;;;;;;;;;;;;;;11.59;57.65;100575.72;4945935;28;7014;-73
2023/12/20 11:39:28;;;;;;;;;;;;;;;11.58;57.91;100576.53;4937789;28;8456;-74
2023/12/20 11:41:56;;;;;;;;;;;;;;;11.57;57.99;100559.38;4963733;28;7321;-73
2023/12/20 11:44:22;;;;;;;;;;;;;;;11.59;58.01;100560.31;4956149;28;7078;-74
2023/12/20 11:46:47;;;;;;;;;;;;;;;11.59;57.87;100568.03;4972252;28;7237;-75
2023/12/20 11:49:13;;;;;;;;;;;;;;;11.60;58.06;100567.25;4970611;28;6796;-73
2023/12/20 11:51:42;;;;;;;;;;;;;;;11.62;58.10;100557.94;4965486;28;6796;-74
2023/12/20 11:54:08;;;;;;;;;;;;;;;11.65;58.09;100552.91;4972032;28;7162;-74
2023/12/20 11:56:36;;;;;;;;;;;;;;;11.68;57.38;100542.78;4948126;28;7010;-73
2023/12/20 11:59:01;;;;;;;;;;;;;;;11.72;57.47;100544.69;4959819;28;9817;-73
2023/12/20 12:01:27;;;;;;;;;;;;;;;11.74;57.50;100552.47;4964824;28;7609;-73
2023/12/20 12:04:08;;;;;;;;;;;;;;;11.75;57.73;100552.53;4966068;28;6975;-72
2023/12/20 12:06:34;;;;;;;;;;;;;;;11.75;57.14;100539.69;4966091;28;6807;-72
2023/12/20 12:08:59;;;;;;;;;;;;;;;11.77;57.22;100544.91;4965727;28;7428;-73
2023/12/20 12:11:25;;;;;;;;;;;;;;;11.76;57.18;100540.59;4967833;28;6811;-76
2023/12/20 12:13:51;;;;;;;;;;;;;;;11.72;57.16;100531.84;4969744;28;7078;-75
2023/12/20 12:16:22;;;;;;;;;;;;;;;11.71;57.80;100535.25;4965329;28;6858;-74
2023/12/20 12:18:58;;;;;;;;;;;;;;;11.69;57.21;100533.41;4969176;28;6973;-73
2023/12/20 12:21:24;;;;;;;;;;;;;;;11.64;57.12;100516.13;4966237;28;7177;-73
2023/12/20 12:23:49;;;;;;;;;;;;;;;11.63;57.61;100527.16;4981166;28;6776;-73
2023/12/20 12:26:15;;;;;;;;;;;;;;;11.59;57.00;100516.69;4968005;28;7223;-73
2023/12/20 12:28:41;;;;;;;;;;;;;;;11.57;57.48;100523.44;4967204;28;6780;-73
2023/12/20 12:31:07;;;;;;;;;;;;;;;11.53;57.81;100518.19;4973053;28;6973;-72
2023/12/20 12:33:33;;;;;;;;;;;;;;;11.53;57.75;100512.16;4963523;28;6978;-74
2023/12/20 12:36:00;;;;;;;;;;;;;;;11.51;57.56;100524.94;4966342;28;6776;-73
2023/12/20 12:38:26;;;;;;;;;;;;;;;11.47;57.77;100520.47;4961624;28;7284;-74
2023/12/20 12:40:53;;;;;;;;;;;;;;;11.45;58.19;100506.69;4958615;28;6998;-74
2023/12/20 12:43:19;;;;;;;;;;;;;;;11.44;58.35;100501.47;4968421;28;6819;-75
2023/12/20 12:45:44;;;;;;;;;;;;;;;11.43;57.84;100497.16;4966001;28;7202;-72